createdAt,value
2023-04-04T00:04:54.209Z,2.32
2023-04-04T00:09:51.383Z,2.33
2023-04-04T00:14:47.960Z,2.33
2023-04-04T00:19:44.894Z,2.31
2023-04-04T00:24:42.290Z,2.21
2023-04-04T00:29:39.000Z,2.22
2023-04-04T00:34:36.598Z,2.20
2023-04-04T00:39:34.154Z,2.16
2023-04-04T00:44:32.379Z,2.10
2023-04-04T00:49:30.389Z,2.06
2023-04-04T00:54:27.261Z,2.07
2023-04-04T00:59:24.265Z,2.06
2023-04-04T01:04:22.898Z,2.03
2023-04-04T01:09:22.609Z,1.99
2023-04-04T01:14:19.453Z,2.00
2023-04-04T01:19:22.899Z,2.01
2023-04-04T01:24:24.979Z,1.98
2023-04-04T01:29:21.942Z,2.01
2023-04-04T01:35:03.954Z,2.01
2023-04-04T01:40:06.399Z,1.99
2023-04-04T01:45:03.191Z,1.99
2023-04-04T01:50:00.886Z,1.99
2023-04-04T01:55:00.923Z,1.94
2023-04-04T02:00:02.714Z,1.81
2023-04-04T02:05:05.609Z,1.84
2023-04-04T02:10:02.801Z,2.03
2023-04-04T02:15:12.171Z,2.03
2023-04-04T02:20:12.013Z,2.02
2023-04-04T02:25:09.092Z,2.03
2023-04-04T02:30:07.520Z,2.03
2023-04-04T02:35:05.046Z,1.99
2023-04-04T02:40:08.636Z,1.99
2023-04-04T02:45:05.759Z,1.97
2023-04-04T02:50:10.307Z,1.96
2023-04-04T02:55:07.889Z,1.90
2023-04-04T03:00:07.155Z,1.92
2023-04-04T03:05:04.217Z,1.92
2023-04-04T03:10:03.207Z,1.93
2023-04-04T03:14:59.995Z,1.93
2023-04-04T03:19:56.761Z,1.91
2023-04-04T03:24:53.598Z,1.90
2023-04-04T03:29:50.826Z,1.90
2023-04-04T03:34:49.961Z,1.93
2023-04-04T03:39:47.144Z,1.92
2023-04-04T03:44:44.022Z,1.94
2023-04-04T03:49:43.870Z,1.95
2023-04-04T03:54:42.983Z,1.93
2023-04-04T03:59:39.747Z,1.90
2023-04-04T04:04:38.759Z,1.90
2023-04-04T04:09:37.653Z,1.87
2023-04-04T04:14:45.058Z,1.94
2023-04-04T04:19:47.392Z,1.93
2023-04-04T04:30:41.344Z,1.86
2023-04-04T04:35:40.095Z,1.83
2023-04-04T04:40:43.226Z,1.94
2023-04-04T04:45:44.847Z,1.92
2023-04-04T04:50:44.693Z,1.88
2023-04-04T04:55:46.200Z,1.88
2023-04-04T05:00:43.483Z,1.87
2023-04-04T05:05:40.434Z,1.89
2023-04-04T05:10:38.116Z,1.86
2023-04-04T05:15:35.537Z,1.89
2023-04-04T05:20:32.608Z,1.89
2023-04-04T05:25:29.142Z,1.92
2023-04-04T05:30:26.169Z,1.92
2023-04-04T05:35:22.691Z,1.99
2023-04-04T12:47:59.881Z,8.46
2023-04-04T12:53:18.441Z,8.52
2023-04-04T14:33:20.721Z,8.62
2023-04-04T14:38:19.665Z,8.52
2023-04-04T14:43:21.797Z,8.43
2023-04-04T14:48:18.827Z,8.37
2023-04-04T14:53:19.995Z,8.35
2023-04-04T14:58:18.044Z,8.42
2023-04-04T15:03:57.624Z,8.43
2023-04-04T15:08:54.300Z,8.44
2023-04-04T15:13:54.025Z,8.40
2023-04-04T15:18:58.861Z,8.42
2023-04-04T15:23:57.879Z,8.37
2023-04-04T15:28:55.981Z,8.33
2023-04-04T15:33:59.377Z,8.34
2023-04-04T15:38:56.527Z,8.22
2023-04-04T15:43:53.497Z,8.26
2023-04-04T15:48:55.166Z,8.26
2023-04-04T15:53:56.052Z,8.22
2023-04-04T16:09:13.540Z,7.86
2023-04-04T16:14:12.307Z,7.90
2023-04-04T16:19:11.759Z,7.84
2023-04-04T16:24:09.550Z,7.80
2023-04-04T16:29:06.399Z,7.72
2023-04-04T16:34:06.878Z,7.66
2023-04-04T19:28:31.016Z,6.18
2023-04-04T19:33:27.857Z,6.14
2023-04-04T19:38:28.326Z,6.11
2023-04-04T19:43:27.368Z,6.02
2023-04-04T19:48:49.846Z,6.00
2023-04-04T19:53:53.352Z,5.90
2023-04-04T19:58:58.041Z,5.77
2023-04-04T20:03:59.256Z,5.76
2023-04-04T20:08:57.409Z,5.72
2023-04-04T20:13:56.288Z,5.66
2023-04-04T20:18:53.274Z,5.56
2023-04-04T20:23:50.026Z,5.58
2023-04-04T20:28:46.633Z,5.44
2023-04-04T20:33:43.730Z,5.40
2023-04-04T20:38:40.780Z,5.34
2023-04-04T20:43:38.387Z,5.26
2023-04-04T20:48:37.750Z,5.23
2023-04-04T20:53:34.358Z,5.15
2023-04-04T20:58:31.177Z,5.11
2023-04-04T21:03:29.300Z,5.08
2023-04-04T21:08:26.966Z,5.01
2023-04-04T21:13:36.890Z,4.96
2023-04-04T21:18:33.767Z,4.93
2023-04-04T21:23:30.293Z,4.84
2023-04-04T21:28:32.261Z,4.81
2023-04-04T21:33:28.884Z,4.72
2023-04-04T21:38:35.319Z,4.71
2023-04-04T21:43:31.858Z,4.63
2023-04-04T21:48:28.409Z,4.59
2023-04-04T21:53:24.904Z,4.54
2023-04-04T21:58:21.573Z,4.49
2023-04-04T22:03:18.124Z,4.45
2023-04-04T22:08:14.597Z,4.37
2023-04-04T22:13:14.601Z,4.33
2023-04-04T22:18:14.694Z,4.27
2023-04-04T22:23:12.603Z,4.24
2023-04-04T22:28:09.318Z,4.20
2023-04-04T22:33:06.036Z,4.12
2023-04-04T22:38:03.078Z,4.08
2023-04-04T22:43:00.620Z,4.05
2023-04-04T22:48:01.948Z,4.03
2023-04-04T22:52:58.581Z,3.96
2023-04-04T22:57:55.252Z,3.90
2023-04-04T23:02:52.013Z,3.84
2023-04-04T23:07:52.833Z,3.83
2023-04-04T23:12:49.313Z,3.77
2023-04-04T23:17:46.551Z,3.73
2023-04-04T23:22:43.343Z,3.67
2023-04-04T23:27:40.377Z,3.62
2023-04-04T23:32:36.861Z,3.59
2023-04-04T23:37:33.498Z,3.53
2023-04-04T23:42:29.971Z,3.51
2023-04-04T23:47:26.551Z,3.47
2023-04-04T23:52:23.294Z,3.43
2023-04-04T23:57:19.823Z,3.36
